Time;durP1;ratioP1;P1;durP2;ratioP2;P2;SDS_P1;SDS_P2;PMS_P1;PMS_P2;Temp;Humidity;BMP_temperature;BMP_pressure;BME280_temperature;BME280_humidity;BME280_pressure;Samples;Min_cycle;Max_cycle;Signal;HPM_P1;HPM_P2
2021/11/01 00:01:34;;;;;;;60.40;35.30;;;;;;;6.09;59.96;98534.52;235980;1195;138549;-59
2021/11/01 00:06:37;;;;;;;61.10;35.60;;;;;;;6.02;59.81;98530.14;235275;1196;139086;-58
2021/11/01 00:11:40;;;;;;;58.60;35.50;;;;;;;5.96;59.70;98531.17;236188;1195;141125;-63
2021/11/01 00:16:43;;;;;;;59.20;35.40;;;;;;;5.90;59.81;98522.08;235895;1195;138522;-60
2021/11/01 00:21:47;;;;;;;68.30;37.20;;;;;;;5.86;60.11;98521.23;236091;1194;139474;-60
2021/11/01 00:26:50;;;;;;;65.50;37.40;;;;;;;5.81;60.21;98518.64;236111;1195;138797;-59
2021/11/01 00:31:53;;;;;;;63.90;36.50;;;;;;;5.80;60.03;98519.05;236062;1195;138779;-61
2021/11/01 00:36:56;;;;;;;62.00;36.10;;;;;;;5.83;60.15;98512.05;235636;1196;139448;-58
2021/11/01 00:41:59;;;;;;;61.40;36.50;;;;;;;5.82;59.90;98510.35;235987;1195;138873;-58
2021/11/01 00:47:03;;;;;;;66.60;37.90;;;;;;;5.79;59.90;98503.12;236293;1195;139120;-59
2021/11/01 00:52:07;;;;;;;65.00;36.10;;;;;;;5.77;60.05;98491.96;235794;1195;138530;-63
2021/11/01 00:57:10;;;;;;;55.80;35.10;;;;;;;5.72;59.78;98487.09;236319;1194;138637;-63
2021/11/01 01:02:13;;;;;;;68.00;36.80;;;;;;;5.64;59.70;98485.91;236198;1195;138988;-60
2021/11/01 01:07:16;;;;;;;66.50;34.70;;;;;;;5.58;59.78;98491.00;236064;1195;138643;-61
2021/11/01 01:12:20;;;;;;;60.50;34.20;;;;;;;5.50;59.69;98490.67;236349;1195;138660;-61
2021/11/01 01:17:25;;;;;;;59.80;36.30;;;;;;;5.46;60.06;98489.62;236409;1194;138914;-61
2021/11/01 01:22:29;;;;;;;58.70;34.10;;;;;;;5.42;59.78;98489.83;235400;1195;139340;-59
2021/11/01 01:27:32;;;;;;;61.90;34.60;;;;;;;5.32;59.72;98481.90;236278;1195;139543;-58
2021/11/01 01:32:36;;;;;;;60.90;33.70;;;;;;;5.28;60.02;98473.66;236121;1195;139365;-60
2021/11/01 01:37:39;;;;;;;57.40;33.30;;;;;;;5.23;59.89;98463.36;235533;1196;138635;-59
2021/11/01 01:42:42;;;;;;;53.70;31.80;;;;;;;5.15;60.30;98456.35;235922;1194;138375;-59
2021/11/01 01:47:47;;;;;;;54.50;32.40;;;;;;;5.07;60.25;98452.73;236243;1195;138516;-60
2021/11/01 01:52:52;;;;;;;56.30;32.60;;;;;;;5.03;60.32;98448.70;235935;1195;140550;-61
2021/11/01 01:57:55;;;;;;;59.60;32.90;;;;;;;4.96;60.61;98441.99;235917;1194;139995;-58
2021/11/01 02:03:01;;;;;;;59.60;32.80;;;;;;;4.94;60.57;98436.31;235605;1195;139710;-61
2021/11/01 02:08:09;;;;;;;59.50;32.90;;;;;;;4.95;60.78;98433.76;236290;1195;139558;-60
2021/11/01 02:13:24;;;;;;;56.70;31.80;;;;;;;4.96;60.61;98425.98;236356;1195;138628;-59
2021/11/01 02:18:31;;;;;;;59.60;32.80;;;;;;;4.98;60.79;98424.29;236440;1195;138849;-58
2021/11/01 02:24:04;;;;;;;53.10;31.00;;;;;;;4.96;60.70;98423.52;236205;1195;139934;-59
2021/11/01 02:29:09;;;;;;;55.80;30.50;;;;;;;4.94;60.77;98417.64;235428;1195;139314;-56
2021/11/01 02:34:13;;;;;;;53.20;30.40;;;;;;;4.92;60.77;98417.21;235996;1195;139932;-58
2021/11/01 02:39:17;;;;;;;55.10;30.80;;;;;;;4.88;60.67;98410.05;235840;1195;139376;-57
2021/11/01 02:44:22;;;;;;;52.40;29.80;;;;;;;4.85;60.97;98407.23;236269;1195;139232;-57
2021/11/01 02:49:25;;;;;;;52.10;31.20;;;;;;;4.79;60.59;98405.23;236302;1194;138985;-60
2021/11/01 02:54:28;;;;;;;52.40;30.00;;;;;;;4.74;61.05;98400.17;236504;1190;138579;-61
2021/11/01 02:59:31;;;;;;;54.70;30.50;;;;;;;4.72;61.13;98402.55;236181;1195;139706;-61
2021/11/01 03:04:34;;;;;;;55.40;30.20;;;;;;;4.68;60.99;98399.25;235865;1195;139504;-61
2021/11/01 03:09:40;;;;;;;52.30;28.70;;;;;;;4.62;60.92;98390.95;236260;1195;138606;-62
2021/11/01 03:14:51;;;;;;;46.20;28.30;;;;;;;4.56;61.06;98388.95;236132;1195;138843;-59
2021/11/01 03:20:07;;;;;;;50.00;29.70;;;;;;;4.52;61.12;98389.13;235915;1195;139115;-59
2021/11/01 03:25:33;;;;;;;52.20;29.80;;;;;;;4.52;60.93;98388.42;236347;1190;139677;-60
2021/11/01 03:30:43;;;;;;;45.10;27.90;;;;;;;4.54;61.12;98381.52;236483;1195;141975;-61
2021/11/01 03:35:47;;;;;;;48.90;27.20;;;;;;;4.54;61.28;98377.44;236220;1195;139173;-59
2021/11/01 03:40:51;;;;;;;50.10;27.60;;;;;;;4.59;61.18;98376.50;236090;1195;138881;-60
2021/11/01 03:45:58;;;;;;;43.40;25.50;;;;;;;4.64;61.12;98371.89;236257;1195;138078;-56
2021/11/01 03:51:10;;;;;;;41.10;25.60;;;;;;;4.65;61.31;98370.58;235970;1195;139282;-61
2021/11/01 03:56:13;;;;;;;43.60;25.90;;;;;;;4.62;61.11;98366.55;236110;1195;139183;-59
2021/11/01 04:01:17;;;;;;;45.00;26.10;;;;;;;4.55;61.21;98365.99;236313;1195;139343;-62
2021/11/01 04:06:22;;;;;;;40.40;24.00;;;;;;;4.47;61.12;98360.55;236039;1195;139697;-59
2021/11/01 04:11:26;;;;;;;44.30;25.70;;;;;;;4.42;61.17;98355.33;235280;1195;138813;-58
2021/11/01 04:16:38;;;;;;;45.60;24.60;;;;;;;4.38;61.50;98352.73;236141;1195;140477;-59
2021/11/01 04:21:43;;;;;;;44.60;24.90;;;;;;;4.37;61.51;98346.13;236179;1195;138818;-57
2021/11/01 04:26:47;;;;;;;42.10;24.50;;;;;;;4.37;62.00;98342.77;235807;1194;138734;-59
2021/11/01 04:31:57;;;;;;;41.50;23.90;;;;;;;4.39;61.90;98336.39;236244;1194;139142;-59
2021/11/01 04:37:00;;;;;;;41.90;25.20;;;;;;;4.40;61.95;98330.55;236125;1195;139005;-60
2021/11/01 04:42:39;;;;;;;39.80;23.70;;;;;;;4.43;61.83;98336.35;236207;1195;139414;-61
2021/11/01 04:53:04;;;;;;;38.30;22.90;;;;;;;4.56;61.98;98329.54;236273;1194;138822;-59
2021/11/01 04:58:08;;;;;;;39.30;23.90;;;;;;;4.58;61.80;98324.02;235317;1194;138505;-55
2021/11/01 05:08:22;;;;;;;41.80;24.10;;;;;;;4.52;61.74;98309.04;236230;1194;138568;-60
2021/11/01 05:13:29;;;;;;;41.30;25.60;;;;;;;4.47;61.46;98307.54;236370;1195;139739;-59
2021/11/01 05:18:49;;;;;;;41.20;24.90;;;;;;;4.40;61.38;98306.63;235903;1195;139521;-60
2021/11/01 05:24:00;;;;;;;42.00;24.80;;;;;;;4.31;61.25;98307.27;236162;1195;138418;-60
2021/11/01 05:29:06;;;;;;;41.70;24.60;;;;;;;4.22;61.39;98304.90;236477;1195;140731;-59
2021/11/01 05:34:14;;;;;;;41.60;23.50;;;;;;;4.16;61.26;98302.51;236548;1195;138546;-60
2021/11/01 05:39:16;;;;;;;37.90;22.80;;;;;;;4.09;61.34;98304.27;236339;1195;139802;-58
2021/11/01 05:44:20;;;;;;;39.90;22.30;;;;;;;4.07;61.58;98306.83;236103;1195;139078;-58
2021/11/01 05:49:23;;;;;;;38.10;22.40;;;;;;;4.09;61.80;98301.98;236350;1195;140516;-59
2021/11/01 05:54:30;;;;;;;35.70;22.00;;;;;;;4.09;62.03;98302.02;236613;1194;139204;-59
2021/11/01 06:00:01;;;;;;;39.60;22.00;;;;;;;4.11;62.10;98295.75;235755;1196;138667;-61
2021/11/01 06:05:24;;;;;;;35.40;20.30;;;;;;;4.21;62.12;98304.04;235365;1194;139434;-59
2021/11/01 06:15:33;;;;;;;35.60;19.30;;;;;;;4.51;62.55;98312.96;236507;1195;139114;-60
2021/11/01 06:20:36;;;;;;;31.50;18.70;;;;;;;4.69;62.65;98309.79;236573;1194;140981;-59
2021/11/01 06:25:39;;;;;;;32.00;18.40;;;;;;;4.84;62.86;98308.34;236134;1195;139263;-58
2021/11/01 06:30:50;;;;;;;35.20;19.20;;;;;;;4.92;62.88;98309.33;235977;1195;139755;-57
2021/11/01 08:38:48;;;;;;;22.30;14.00;;;;;;;9.38;60.85;98255.88;235783;1194;139354;-62
2021/11/01 09:26:27;;;;;;;75.90;18.30;;;;;;;10.83;59.40;98219.92;235916;1195;138649;-61
2021/11/01 09:36:50;;;;;;;50.30;32.40;;;;;;;14.05;63.72;98202.55;235626;1195;141266;-61
2021/11/01 09:41:55;;;;;;;14.50;9.30;;;;;;;14.32;59.00;98195.27;235606;1195;138793;-60
2021/11/01 09:47:02;;;;;;;11.30;8.00;;;;;;;14.08;57.12;98195.90;235696;1196;139807;-60
2021/11/01 09:52:08;;;;;;;;;;;;;;;13.80;56.46;98194.23;235496;1196;138530;-62
2021/11/01 09:57:28;;;;;;;14.10;8.70;;;;;;;13.56;55.94;98190.14;236001;1195;124843;-60
2021/11/01 10:02:31;;;;;;;13.60;9.00;;;;;;;13.42;55.98;98189.08;235690;1195;139999;-61
2021/11/01 10:07:35;;;;;;;697.20;534.10;;;;;;;13.34;56.05;98184.73;235742;1190;140065;-60
2021/11/01 10:12:42;;;;;;;47.60;34.00;;;;;;;13.41;56.00;98177.95;235848;1195;139118;-58
2021/11/01 10:17:57;;;;;;;640.60;443.60;;;;;;;13.51;56.05;98167.40;236054;1195;138880;-58
2021/11/01 10:23:01;;;;;;;96.60;57.70;;;;;;;13.65;56.15;98157.96;235856;1195;139732;-60
2021/11/01 10:28:05;;;;;;;21.10;11.90;;;;;;;13.77;55.54;98150.70;236249;1195;140404;-57
2021/11/01 10:33:12;;;;;;;326.80;205.70;;;;;;;13.92;55.61;98150.36;235923;1195;139041;-59
2021/11/01 10:38:31;;;;;;;693.10;539.40;;;;;;;14.07;55.35;98142.42;236150;1195;138860;-58
2021/11/01 11:15:50;;;;;;;12.10;7.70;;;;;;;15.08;53.09;98104.27;236406;1195;139361;-60
2021/11/01 11:47:42;;;;;;;13.30;8.30;;;;;;;16.96;53.12;98067.17;236327;1195;139173;-60
2021/11/01 11:52:47;;;;;;;10.30;7.80;;;;;;;17.35;52.35;98063.45;236052;1195;138956;-61
2021/11/01 11:57:55;;;;;;;7.90;5.70;;;;;;;17.66;51.82;98053.11;236404;1194;139306;-62
2021/11/01 12:03:10;;;;;;;11.50;6.30;;;;;;;17.89;51.34;98046.65;236392;1194;139057;-61
2021/11/01 12:18:52;;;;;;;7.00;5.60;;;;;;;18.57;50.41;98035.70;236445;1194;139210;-61
2021/11/01 12:23:55;;;;;;;26.20;16.60;;;;;;;18.60;49.41;98028.34;236186;1194;139524;-61
2021/11/01 12:29:01;;;;;;;17.10;10.80;;;;;;;18.62;48.71;98031.08;236351;1194;138832;-60
2021/11/01 12:39:29;;;;;;;20.10;12.10;;;;;;;18.60;47.97;98024.54;236353;1195;139375;-58
2021/11/01 12:56:58;;;;;;;15.60;9.90;;;;;;;18.79;47.85;98016.93;236421;1195;139918;-59
2021/11/01 13:00:47;;;;;;;31.70;20.00;;;;;;;18.94;48.05;98011.06;236114;1195;138884;-58
2021/11/01 13:05:54;;;;;;;20.30;14.30;;;;;;;19.05;47.59;98005.02;236177;1195;139476;-58
2021/11/01 13:11:15;;;;;;;19.90;10.60;;;;;;;19.08;47.29;98002.86;236094;1195;139774;-59
2021/11/01 13:22:29;;;;;;;14.80;7.30;;;;;;;19.17;47.41;97989.81;236204;1195;139208;-59
2021/11/01 13:28:17;;;;;;;72.50;57.30;;;;;;;19.26;47.12;97985.69;236251;1195;139304;-60
2021/11/01 13:38:28;;;;;;;51.80;32.60;;;;;;;19.18;46.58;97977.25;235833;1195;140435;-60
2021/11/01 13:43:32;;;;;;;40.10;22.70;;;;;;;19.14;46.49;97965.47;235715;1195;140675;-60
2021/11/01 13:48:35;;;;;;;20.00;13.40;;;;;;;19.15;46.38;97962.84;235562;1195;139559;-62
2021/11/01 13:54:01;;;;;;;20.60;10.90;;;;;;;19.17;46.22;97957.31;235392;1196;140462;-59
2021/11/01 13:59:20;;;;;;;;;;;;;;;19.21;46.25;97952.27;236067;1195;139014;-62
2021/11/01 16:22:05;;;;;;;16.30;9.70;;;;;;;14.18;46.02;97986.21;236119;1195;138536;-59
2021/11/01 16:27:15;;;;;;;19.00;10.20;;;;;;;13.89;46.37;97985.71;236400;1195;139845;-57
2021/11/01 16:32:35;;;;;;;20.00;9.20;;;;;;;13.59;46.90;97985.23;235953;1195;139435;-58
2021/11/01 16:37:45;;;;;;;22.10;9.80;;;;;;;13.34;47.37;97981.30;235664;1196;139204;-59
2021/11/01 16:42:49;;;;;;;20.00;10.40;;;;;;;13.11;47.82;97981.01;235415;1195;139176;-58
2021/11/01 16:47:52;;;;;;;22.30;10.40;;;;;;;12.91;47.93;97973.00;236401;1195;139115;-58
2021/11/01 16:52:58;;;;;;;21.90;11.60;;;;;;;12.72;48.32;97973.77;236474;1195;139398;-58
2021/11/01 16:58:28;;;;;;;30.50;16.40;;;;;;;12.60;49.22;97975.11;236388;1195;139141;-58
2021/11/01 17:03:47;;;;;;;21.10;9.90;;;;;;;12.57;49.46;97973.36;236087;1195;140139;-59
2021/11/01 17:30:52;;;;;;;20.30;12.00;;;;;;;11.70;50.61;97951.08;236592;1195;139158;-57
2021/11/01 17:36:17;;;;;;;24.00;12.30;;;;;;;11.53;50.99;97964.95;235545;1195;138866;-58
2021/11/01 18:51:30;;;;;;;47.70;26.90;;;;;;;10.56;55.34;97967.08;236637;1195;140183;-58
2021/11/01 18:56:34;;;;;;;47.10;26.10;;;;;;;10.54;53.80;97969.59;236708;1195;138895;-60
2021/11/01 19:01:41;;;;;;;184.70;118.20;;;;;;;10.32;53.81;97967.25;236042;1195;139152;-58
2021/11/01 19:06:54;;;;;;;65.00;34.10;;;;;;;10.15;54.05;97970.34;236137;1195;139456;-58
2021/11/01 20:06:03;;;;;;;70.90;38.80;;;;;;;8.59;55.70;97985.45;236383;1195;138832;-56
2021/11/01 21:26:26;;;;;;;79.50;44.60;;;;;;;8.30;58.19;97971.91;236181;1195;141211;-58
2021/11/01 21:31:29;;;;;;;81.10;44.60;;;;;;;8.40;58.00;97968.59;236130;1195;139410;-57
2021/11/01 21:36:32;;;;;;;83.00;47.20;;;;;;;8.49;58.12;97960.16;235952;1195;142116;-59
2021/11/01 21:41:35;;;;;;;90.60;48.20;;;;;;;8.52;58.01;97954.63;236283;1195;139290;-60
2021/11/01 21:46:38;;;;;;;86.30;46.30;;;;;;;8.52;58.06;97948.42;235516;1195;138953;-58
2021/11/01 21:51:43;;;;;;;77.70;44.90;;;;;;;8.52;57.89;97945.82;235855;1195;139628;-59
2021/11/01 21:56:54;;;;;;;81.00;45.20;;;;;;;8.50;58.07;97946.44;236180;1195;139252;-60
2021/11/01 22:18:17;;;;;;;62.80;34.10;;;;;;;8.71;58.64;97920.52;236290;1195;139160;-57
2021/11/01 22:33:59;;;;;;;56.70;33.30;;;;;;;8.93;58.63;97893.70;236353;1195;138456;-59
2021/11/01 22:59:32;;;;;;;56.40;33.20;;;;;;;9.15;58.06;97893.41;235295;1199;137852;-57
2021/11/01 23:04:55;;;;;;;55.00;32.30;;;;;;;9.18;58.44;97885.60;235455;1200;137283;-57
2021/11/01 23:31:29;;;;;;;45.00;27.90;;;;;;;9.41;58.83;97875.22;236468;1194;138534;-59
2021/11/01 23:36:33;;;;;;;45.60;27.70;;;;;;;9.42;58.77;97859.91;236394;1194;137809;-59
2021/11/01 23:41:37;;;;;;;45.80;26.90;;;;;;;9.39;58.94;97848.63;236082;1193;138292;-57
2021/11/01 23:46:40;;;;;;;46.20;27.80;;;;;;;9.34;58.82;97847.09;235630;1194;138001;-59
2021/11/01 23:51:52;;;;;;;43.00;26.50;;;;;;;9.29;59.05;97844.95;236088;1195;138086;-59
2021/11/01 23:56:56;;;;;;;61.30;36.60;;;;;;;9.29;59.35;97846.02;235828;1194;138524;-61
